CheckWX is a tool to help pilots better visualize weather data.  It is not intended as a substitute for an official pre-flight weather briefing.

08:01:18 UTC

LICR TAF
Reggio Calabria Airport
Reggio Calabria, Italy
TAF LICR 190500Z 1906/2006 35010KT CAVOK TEMPO 1916/1919 SHRA BECMG 1918/1920 VRB05KT

Mar-19@
06:00 UTC

Mar-19 @ 06:00 UTC

Mar-19@
18:00 UTC

Mar-19 @ 18:00 UTC

TAF LICR 190500Z 1906/2006 35010KT CAVOK
Wind
  • 350° at 10 KTS
Conditions
No significant weather
Cloud Levels
  • No significant clouds

Mar-19@
16:00 UTC

Mar-19 @ 16:00 UTC

Mar-19@
19:00 UTC

Mar-19 @ 19:00 UTC

TEMPO 1916/1919 SHRA

Temporary

Temporary Changes expected for less than half the time period

Conditions
Rain

Mar-19@
18:00 UTC

Mar-19 @ 18:00 UTC

Mar-20@
06:00 UTC

Mar-20 @ 06:00 UTC

BECMG 1918/1920 VRB05KT

Becoming

Becoming Conditions expected by Tue, Mar 19, 2019 @ 20:00 UTC

Wind
  • Variable at 5 KTS
Conditions
No significant weather
Cloud Levels
  • No significant clouds